createdAt,value
2019-03-08T00:02:51.171Z,53.33
2019-03-08T00:05:55.706Z,58.03
2019-03-08T00:09:00.071Z,71.80
2019-03-08T00:12:04.378Z,60.57
2019-03-08T00:15:10.606Z,77.07
2019-03-08T00:18:14.948Z,66.50
2019-03-08T00:21:19.341Z,74.07
2019-03-08T00:24:23.608Z,65.17
2019-03-08T00:27:27.917Z,73.67
2019-03-08T00:30:32.298Z,70.03
2019-03-08T00:33:36.685Z,66.10
2019-03-08T00:36:41.004Z,67.30
2019-03-08T00:39:45.466Z,62.57
2019-03-08T00:42:49.742Z,63.90
2019-03-08T00:45:54.428Z,67.53
2019-03-08T00:48:58.751Z,76.70
2019-03-08T00:52:03.136Z,53.87
2019-03-08T00:55:07.520Z,53.63
2019-03-08T00:58:11.887Z,60.50
2019-03-08T01:01:16.226Z,49.77
2019-03-08T01:04:20.575Z,55.27
2019-03-08T01:07:25.827Z,43.23
2019-03-08T01:10:30.261Z,31.43
2019-03-08T01:13:34.526Z,35.50
2019-03-08T01:16:38.899Z,32.80
2019-03-08T01:19:43.330Z,32.37
2019-03-08T01:22:47.671Z,27.77
2019-03-08T01:25:51.939Z,31.07
2019-03-08T01:28:56.234Z,23.93
2019-03-08T01:32:00.502Z,24.20
2019-03-08T01:35:05.330Z,22.93
2019-03-08T01:38:09.577Z,25.37
2019-03-08T01:41:14.302Z,21.03
2019-03-08T01:44:18.554Z,38.83
2019-03-08T01:47:23.087Z,50.33
2019-03-08T01:50:27.384Z,23.20
2019-03-08T01:53:31.687Z,30.03
2019-03-08T01:56:36.024Z,29.50
2019-03-08T01:59:40.315Z,22.33
2019-03-08T02:02:44.707Z,33.30
2019-03-08T02:05:49.002Z,36.47
2019-03-08T02:08:53.419Z,51.47
2019-03-08T02:11:57.780Z,30.00
2019-03-08T02:15:02.463Z,35.23
2019-03-08T02:25:22.648Z,28.83
2019-03-08T02:28:27.173Z,22.33
2019-03-08T02:31:31.500Z,40.77
2019-03-08T02:34:35.779Z,71.00
2019-03-08T02:37:40.112Z,63.30
2019-03-08T02:40:44.407Z,55.90
2019-03-08T02:43:48.753Z,43.20
2019-03-08T02:46:53.114Z,41.97
2019-03-08T02:49:57.452Z,40.47
2019-03-08T02:53:01.825Z,43.03
2019-03-08T02:56:06.458Z,40.23
2019-03-08T02:59:10.795Z,34.40
2019-03-08T03:02:15.183Z,34.50
2019-03-08T03:05:19.632Z,36.47
2019-03-08T03:08:23.981Z,35.00
2019-03-08T03:11:28.279Z,39.87
2019-03-08T03:14:32.592Z,45.80
2019-03-08T03:17:36.863Z,32.93
2019-03-08T03:20:41.224Z,35.33
2019-03-08T03:23:45.584Z,37.40
2019-03-08T03:26:49.904Z,33.40
2019-03-08T03:29:54.295Z,30.07
2019-03-08T03:32:58.626Z,31.00
2019-03-08T03:36:02.991Z,29.67
2019-03-08T03:39:07.864Z,22.50
2019-03-08T03:42:12.173Z,26.30
2019-03-08T03:45:17.216Z,26.43
2019-03-08T03:48:21.571Z,20.07
2019-03-08T03:51:25.832Z,18.70
2019-03-08T03:54:30.208Z,21.87
2019-03-08T03:57:34.486Z,24.93
2019-03-08T04:00:38.898Z,40.03
2019-03-08T04:03:43.231Z,38.50
2019-03-08T04:06:47.611Z,31.20
2019-03-08T04:09:51.882Z,30.47
2019-03-08T04:12:56.212Z,29.10
2019-03-08T04:16:00.507Z,24.00
2019-03-08T04:19:04.809Z,23.70
2019-03-08T04:22:09.066Z,24.77
2019-03-08T04:25:13.972Z,21.23
2019-03-08T04:28:18.435Z,21.93
2019-03-08T04:31:22.806Z,19.07
2019-03-08T04:34:27.060Z,16.67
2019-03-08T04:37:31.340Z,17.33
2019-03-08T04:40:35.604Z,14.37
2019-03-08T04:43:39.982Z,11.87
2019-03-08T04:46:44.368Z,13.50
2019-03-08T04:49:48.653Z,8.40
2019-03-08T04:52:52.989Z,8.87
2019-03-08T04:55:57.274Z,8.17
2019-03-08T04:59:01.623Z,7.10
2019-03-08T05:02:06.017Z,7.37
2019-03-08T05:05:10.252Z,5.77
2019-03-08T05:08:14.592Z,4.13
2019-03-08T05:11:18.854Z,4.33
2019-03-08T05:14:23.542Z,4.70
2019-03-08T05:17:27.920Z,3.60
2019-03-08T05:20:32.302Z,4.47
2019-03-08T05:23:36.640Z,2.93
2019-03-08T05:26:40.999Z,3.10
2019-03-08T05:29:45.408Z,3.80
2019-03-08T05:32:49.770Z,3.80
2019-03-08T05:35:54.106Z,3.50
2019-03-08T05:38:58.418Z,5.53
2019-03-08T05:42:02.742Z,2.80
2019-03-08T05:45:07.148Z,4.17
2019-03-08T05:48:11.519Z,5.17
2019-03-08T05:51:15.894Z,3.47
2019-03-08T05:54:20.212Z,3.93
2019-03-08T05:57:24.578Z,4.67
2019-03-08T06:00:32.783Z,3.57
2019-03-08T06:03:36.597Z,3.77
2019-03-08T06:06:40.871Z,2.80
2019-03-08T06:09:45.151Z,2.80
2019-03-08T06:12:49.808Z,4.53
2019-03-08T06:15:54.184Z,2.50
2019-03-08T06:18:58.531Z,3.27
2019-03-08T06:22:02.928Z,4.67
2019-03-08T06:25:07.492Z,3.93
2019-03-08T06:28:11.871Z,3.90
2019-03-08T06:31:16.127Z,3.80
2019-03-08T06:34:20.513Z,3.40
2019-03-08T06:37:24.830Z,4.00
2019-03-08T06:40:29.203Z,4.23
2019-03-08T06:43:33.482Z,5.73
2019-03-08T06:46:37.832Z,4.10
2019-03-08T06:49:42.229Z,5.07
2019-03-08T06:52:46.450Z,5.60
2019-03-08T06:55:50.742Z,4.50
2019-03-08T06:59:04.527Z,3.20
2019-03-08T07:02:09.192Z,4.27
2019-03-08T07:05:13.544Z,4.30
2019-03-08T07:08:17.907Z,4.47
2019-03-08T07:11:22.270Z,3.43
2019-03-08T07:14:26.592Z,4.10
2019-03-08T07:17:30.891Z,6.43
2019-03-08T07:20:44.359Z,3.97
2019-03-08T07:24:10.502Z,4.90
2019-03-08T07:27:31.336Z,4.73
2019-03-08T07:31:10.062Z,3.97
2019-03-08T07:34:33.581Z,2.53
2019-03-08T07:37:57.207Z,3.43
2019-03-08T07:41:23.913Z,2.80
2019-03-08T07:44:53.650Z,6.40
2019-03-08T07:48:09.057Z,4.03
2019-03-08T07:51:35.652Z,4.63
2019-03-08T07:54:53.716Z,3.83
2019-03-08T07:58:03.351Z,3.20
2019-03-08T08:01:32.442Z,2.90
2019-03-08T08:04:55.031Z,2.20
2019-03-08T08:08:24.370Z,2.97
2019-03-08T08:11:46.783Z,2.63
2019-03-08T08:14:57.327Z,3.47
2019-03-08T08:18:20.682Z,4.07
2019-03-08T08:21:31.655Z,3.63
2019-03-08T08:24:42.500Z,4.23
2019-03-08T08:27:54.775Z,3.00
2019-03-08T08:31:13.672Z,3.23
2019-03-08T08:34:35.206Z,3.53
2019-03-08T08:37:54.036Z,3.80
2019-03-08T08:41:06.314Z,3.70
2019-03-08T08:44:28.254Z,3.67
2019-03-08T08:47:42.749Z,3.80
2019-03-08T08:51:04.787Z,2.87
2019-03-08T08:54:19.581Z,4.87
2019-03-08T08:57:41.603Z,4.93
2019-03-08T09:01:13.799Z,2.37
2019-03-08T09:04:29.249Z,3.70
2019-03-08T09:07:52.551Z,2.43
2019-03-08T09:11:18.688Z,4.07
2019-03-08T09:14:27.632Z,3.20
2019-03-08T09:17:46.994Z,6.00
2019-03-08T09:21:06.136Z,2.33
2019-03-08T09:24:20.271Z,6.23
2019-03-08T09:27:28.756Z,4.80
2019-03-08T09:30:44.462Z,2.63
2019-03-08T09:34:00.362Z,2.63
2019-03-08T09:37:22.859Z,4.60
2019-03-08T09:40:35.375Z,5.77
2019-03-08T09:43:57.198Z,3.57
2019-03-08T09:47:19.595Z,3.23
2019-03-08T09:50:40.191Z,4.30
2019-03-08T09:53:49.563Z,9.37
2019-03-08T09:57:16.194Z,10.63
2019-03-08T10:00:45.329Z,8.57
2019-03-08T10:04:07.746Z,10.87
2019-03-08T10:07:26.407Z,7.83
2019-03-08T10:10:43.906Z,5.10
2019-03-08T10:14:13.207Z,4.37
2019-03-08T10:17:28.371Z,5.40
2019-03-08T10:20:41.211Z,5.17
2019-03-08T10:24:05.777Z,5.07
2019-03-08T10:27:27.931Z,4.10
2019-03-08T10:30:40.097Z,2.93
2019-03-08T10:34:02.152Z,6.10
2019-03-08T10:37:28.736Z,2.27
2019-03-08T10:40:55.056Z,6.77
2019-03-08T10:44:18.381Z,4.00
2019-03-08T10:47:56.235Z,3.20
2019-03-08T10:51:28.315Z,4.23
2019-03-08T10:54:54.415Z,4.27
2019-03-08T10:58:26.999Z,1.93
2019-03-08T11:01:50.605Z,5.93
2019-03-08T11:05:14.830Z,2.90
2019-03-08T11:08:43.929Z,3.03
2019-03-08T11:12:11.207Z,4.70
2019-03-08T11:15:33.224Z,6.93
2019-03-08T11:19:08.288Z,2.83
2019-03-08T11:22:22.913Z,3.63
2019-03-08T11:25:36.173Z,4.37
2019-03-08T11:29:14.517Z,3.07
2019-03-08T11:32:43.744Z,2.17
2019-03-08T11:35:53.633Z,5.33
2019-03-08T11:39:15.862Z,1.57
2019-03-08T11:42:49.529Z,1.53
2019-03-08T11:46:17.856Z,2.10
2019-03-08T11:49:35.846Z,2.50
2019-03-08T11:53:00.574Z,1.50
2019-03-08T11:56:34.997Z,3.87
2019-03-08T12:00:00.993Z,3.33
2019-03-08T12:03:30.063Z,5.80
2019-03-08T12:06:47.195Z,1.77
2019-03-08T12:10:00.337Z,1.87
2019-03-08T12:13:13.389Z,2.83
2019-03-08T12:16:37.018Z,2.43
2019-03-08T12:20:09.166Z,1.87
2019-03-08T12:23:41.698Z,3.60
2019-03-08T12:27:04.789Z,1.43
2019-03-08T12:30:24.264Z,3.07
2019-03-08T12:33:45.197Z,5.43
2019-03-08T12:36:57.130Z,1.57
2019-03-08T12:40:17.612Z,1.57
2019-03-08T12:43:56.142Z,5.33
2019-03-08T12:47:18.050Z,2.27
2019-03-08T12:50:39.814Z,2.73
2019-03-08T12:54:15.063Z,1.87
2019-03-08T12:57:46.658Z,1.73
2019-03-08T13:01:00.479Z,1.73
2019-03-08T13:04:26.665Z,2.33
2019-03-08T13:07:48.687Z,2.47
2019-03-08T13:10:52.972Z,2.23
2019-03-08T13:13:57.376Z,2.17
2019-03-08T13:17:01.782Z,1.47
2019-03-08T13:20:07.971Z,2.70
2019-03-08T13:23:12.336Z,7.47
2019-03-08T13:26:16.748Z,1.27
2019-03-08T13:29:21.379Z,2.30
2019-03-08T13:32:25.819Z,3.47
2019-03-08T13:35:30.216Z,4.60
2019-03-08T13:38:34.758Z,2.43
2019-03-08T13:41:39.112Z,0.80
2019-03-08T13:44:43.642Z,2.67
2019-03-08T13:47:47.988Z,2.27
2019-03-08T13:50:52.276Z,2.17
2019-03-08T13:53:56.518Z,1.03
2019-03-08T13:57:00.957Z,2.30
2019-03-08T14:00:05.920Z,0.90
2019-03-08T14:03:10.646Z,6.87
2019-03-08T14:06:15.280Z,6.07
2019-03-08T14:09:19.973Z,7.30
2019-03-08T14:12:24.323Z,2.53
2019-03-08T14:15:28.691Z,2.93
2019-03-08T14:18:33.146Z,3.53
2019-03-08T14:21:37.509Z,1.97
2019-03-08T14:24:44.122Z,1.40
2019-03-08T14:27:48.722Z,3.43
2019-03-08T14:31:00.395Z,1.90
2019-03-08T14:34:04.775Z,3.10
2019-03-08T14:37:09.170Z,3.40
2019-03-08T14:40:25.624Z,1.10
2019-03-08T14:43:35.257Z,3.63
2019-03-08T14:46:49.221Z,1.57
2019-03-08T14:49:55.347Z,2.23
2019-03-08T14:52:59.587Z,2.50
2019-03-08T14:56:06.185Z,1.67
2019-03-08T14:59:11.257Z,3.10
2019-03-08T15:02:16.519Z,2.77
2019-03-08T15:05:20.779Z,5.40
2019-03-08T15:08:25.070Z,6.23
2019-03-08T15:11:29.463Z,2.67
2019-03-08T15:14:35.238Z,3.33
2019-03-08T15:17:40.023Z,2.93
2019-03-08T15:20:44.281Z,2.50
2019-03-08T15:23:50.867Z,2.83
2019-03-08T15:26:54.402Z,3.50
2019-03-08T15:29:58.768Z,3.13
2019-03-08T15:33:03.091Z,4.00
2019-03-08T15:36:07.460Z,3.53
2019-03-08T15:39:11.856Z,4.73
2019-03-08T15:42:16.266Z,3.77
2019-03-08T15:45:20.806Z,5.10
2019-03-08T15:48:25.541Z,4.17
2019-03-08T15:51:29.884Z,5.17
2019-03-08T15:54:34.282Z,2.67
2019-03-08T15:57:38.646Z,5.20
2019-03-08T16:00:43.089Z,8.33
2019-03-08T16:03:47.369Z,8.17
2019-03-08T16:06:51.665Z,11.27
2019-03-08T16:09:56.379Z,8.13
2019-03-08T16:13:02.678Z,5.30
2019-03-08T16:16:06.698Z,5.60
2019-03-08T16:19:11.066Z,6.20
2019-03-08T16:22:15.451Z,5.83
2019-03-08T16:25:19.964Z,6.47
2019-03-08T16:28:24.288Z,6.33
2019-03-08T16:31:34.314Z,3.67
2019-03-08T16:34:38.471Z,5.97
2019-03-08T16:38:01.589Z,6.47
2019-03-08T16:41:44.714Z,8.03
2019-03-08T16:45:13.386Z,5.33
2019-03-08T16:48:24.939Z,9.53
2019-03-08T16:52:00.237Z,9.27
2019-03-08T16:55:42.990Z,9.07
2019-03-08T16:59:06.693Z,11.10
2019-03-08T17:02:17.555Z,9.27
2019-03-08T17:05:59.326Z,11.90
2019-03-08T17:09:18.696Z,11.93
2019-03-08T17:12:31.689Z,7.47
2019-03-08T17:15:55.199Z,9.30
2019-03-08T17:19:36.963Z,10.23
2019-03-08T17:22:48.400Z,9.03
2019-03-08T17:26:14.772Z,14.93
2019-03-08T17:29:36.643Z,14.40
2019-03-08T17:33:03.000Z,11.00
2019-03-08T17:36:13.760Z,13.83
2019-03-08T17:39:39.876Z,13.47
2019-03-08T17:43:08.712Z,14.27
2019-03-08T17:46:42.322Z,12.07
2019-03-08T17:50:04.787Z,8.77
2019-03-08T17:53:28.123Z,10.47
2019-03-08T17:56:51.655Z,14.90
2019-03-08T18:00:27.335Z,12.03
2019-03-08T18:03:38.420Z,11.43
2019-03-08T18:06:58.548Z,10.70
2019-03-08T18:10:30.984Z,11.37
2019-03-08T18:13:42.415Z,11.00
2019-03-08T18:17:01.443Z,13.43
2019-03-08T18:20:26.918Z,15.20
2019-03-08T18:23:44.663Z,12.10
2019-03-08T18:27:06.859Z,12.73
2019-03-08T18:30:33.868Z,15.60
2019-03-08T18:33:57.203Z,19.93
2019-03-08T18:37:27.405Z,21.50
2019-03-08T18:40:39.905Z,36.07
2019-03-08T18:43:52.152Z,64.50
2019-03-08T18:47:07.449Z,65.03
2019-03-08T18:50:30.799Z,72.20
2019-03-08T18:54:00.163Z,77.77
2019-03-08T18:57:13.758Z,71.63
2019-03-08T19:00:35.620Z,79.77
2019-03-08T19:03:53.864Z,75.63
2019-03-08T19:07:08.737Z,66.93
2019-03-08T19:10:38.551Z,69.17
2019-03-08T19:14:09.769Z,68.83
2019-03-08T19:17:35.355Z,63.13
2019-03-08T19:20:52.477Z,60.17
2019-03-08T19:24:22.086Z,59.27
2019-03-08T19:27:53.454Z,58.07
2019-03-08T19:31:15.392Z,52.37
2019-03-08T19:34:34.549Z,56.17
2019-03-08T19:38:02.303Z,48.63
2019-03-08T19:41:27.239Z,51.80
2019-03-08T19:44:52.105Z,57.17
2019-03-08T19:48:18.805Z,54.43
2019-03-08T19:51:41.146Z,60.67
2019-03-08T19:54:54.292Z,59.17
2019-03-08T19:58:16.589Z,61.33
2019-03-08T20:01:29.477Z,59.97
2019-03-08T20:04:56.298Z,59.83
2019-03-08T20:08:07.992Z,59.80
2019-03-08T20:11:18.996Z,61.93
2019-03-08T20:14:47.490Z,61.23
2019-03-08T20:18:00.787Z,70.50
2019-03-08T20:21:17.680Z,68.20
2019-03-08T20:24:41.038Z,67.93
2019-03-08T20:28:17.137Z,65.07
2019-03-08T20:31:39.055Z,62.10
2019-03-08T20:35:01.497Z,71.60
2019-03-08T20:38:24.744Z,62.77
2019-03-08T20:42:06.506Z,65.47
2019-03-08T20:45:29.052Z,65.43
2019-03-08T20:48:35.463Z,65.20
2019-03-08T20:51:39.825Z,58.33
2019-03-08T20:54:44.241Z,64.27
2019-03-08T20:57:50.161Z,61.20
2019-03-08T21:00:54.849Z,58.30
2019-03-08T21:03:59.147Z,59.77
2019-03-08T21:07:03.668Z,59.87
2019-03-08T21:10:08.931Z,60.80
2019-03-08T21:13:13.408Z,62.57
2019-03-08T21:16:17.622Z,62.67
2019-03-08T21:19:22.060Z,68.60
2019-03-08T21:22:26.833Z,70.67
2019-03-08T21:25:31.229Z,58.60
2019-03-08T21:28:35.839Z,59.33
2019-03-08T21:31:40.283Z,63.40
2019-03-08T21:34:44.691Z,60.77
2019-03-08T21:37:49.061Z,56.93
2019-03-08T21:40:53.401Z,60.50
2019-03-08T21:43:57.727Z,55.50
2019-03-08T21:47:02.082Z,51.80
2019-03-08T21:50:07.870Z,52.67
2019-03-08T21:53:12.236Z,50.07
2019-03-08T21:56:18.414Z,50.27
2019-03-08T21:59:22.828Z,56.33
2019-03-08T22:02:28.298Z,69.07
2019-03-08T22:05:36.147Z,89.73
2019-03-08T22:08:49.239Z,172.70
2019-03-08T22:11:53.596Z,194.47
2019-03-08T22:14:58.145Z,128.60
2019-03-08T22:18:02.869Z,130.90
2019-03-08T22:21:07.496Z,130.37
2019-03-08T22:24:13.658Z,104.80
2019-03-08T22:27:17.828Z,98.50
2019-03-08T22:30:22.393Z,99.43
2019-03-08T22:33:26.826Z,102.63
2019-03-08T22:36:31.214Z,93.33
2019-03-08T22:39:35.891Z,88.10
2019-03-08T22:42:40.262Z,72.30
2019-03-08T22:45:44.609Z,76.73
2019-03-08T22:48:48.937Z,80.30
2019-03-08T22:51:53.403Z,118.00
2019-03-08T22:54:57.776Z,100.13
2019-03-08T22:58:02.156Z,73.77
2019-03-08T23:01:12.641Z,97.57
2019-03-08T23:04:17.046Z,80.00
2019-03-08T23:07:21.410Z,63.33
2019-03-08T23:10:25.822Z,46.83
2019-03-08T23:13:30.092Z,46.80
2019-03-08T23:16:34.474Z,35.27
2019-03-08T23:19:38.793Z,44.33
2019-03-08T23:22:43.290Z,42.17
2019-03-08T23:25:47.534Z,34.07
2019-03-08T23:28:56.756Z,41.90
2019-03-08T23:32:14.650Z,36.50
2019-03-08T23:35:19.018Z,25.70
2019-03-08T23:38:23.405Z,25.90
2019-03-08T23:41:31.544Z,33.00
2019-03-08T23:44:35.817Z,31.70
2019-03-08T23:47:40.188Z,41.37
2019-03-08T23:50:44.465Z,42.83
2019-03-08T23:53:48.862Z,59.33
2019-03-08T23:56:53.166Z,61.90
2019-03-08T23:59:57.544Z,66.87
